createdAt,value
2023-05-14T00:00:19.513Z,49.52
2023-05-14T00:05:22.334Z,47.85
2023-05-14T00:10:25.223Z,48.24
2023-05-14T00:15:29.481Z,47.32
2023-05-14T00:20:32.222Z,47.80
2023-05-14T00:25:35.015Z,48.14
2023-05-14T00:30:39.729Z,49.06
2023-05-14T00:35:42.518Z,49.08
2023-05-14T00:40:49.942Z,49.15
2023-05-14T00:45:55.288Z,49.25
2023-05-14T00:50:58.158Z,49.95
2023-05-14T00:56:03.783Z,51.01
2023-05-14T01:01:08.065Z,51.57
2023-05-14T01:06:18.141Z,52.67
2023-05-14T01:11:25.665Z,53.16
2023-05-14T01:16:31.987Z,53.36
2023-05-14T01:21:38.572Z,53.73
2023-05-14T01:26:41.589Z,53.94
2023-05-14T01:31:46.549Z,54.19
2023-05-14T01:36:52.363Z,54.48
2023-05-14T01:41:56.438Z,55.27
2023-05-14T01:46:59.228Z,55.23
2023-05-14T01:52:03.415Z,55.61
2023-05-14T01:57:06.551Z,56.27
2023-05-14T02:02:09.326Z,56.25
2023-05-14T02:07:13.664Z,56.97
2023-05-14T02:12:16.431Z,57.59
2023-05-14T02:17:19.372Z,58.23
2023-05-14T02:22:23.462Z,58.39
2023-05-14T02:27:26.245Z,58.42
2023-05-14T02:32:29.227Z,59.07
2023-05-14T02:37:34.707Z,59.53
2023-05-14T02:42:37.535Z,60.20
2023-05-14T02:47:40.518Z,60.38
2023-05-14T02:52:44.685Z,60.53
2023-05-14T02:57:47.647Z,60.32
2023-05-14T03:02:50.548Z,60.37
2023-05-14T03:07:55.416Z,60.70
2023-05-14T03:12:58.214Z,60.90
2023-05-14T03:18:01.027Z,60.65
2023-05-14T03:23:05.261Z,60.46
2023-05-14T03:28:08.083Z,60.90
2023-05-14T03:33:10.937Z,61.76
2023-05-14T03:38:15.060Z,61.81
2023-05-14T03:43:17.848Z,61.52
2023-05-14T03:48:21.317Z,61.24
2023-05-14T03:53:25.575Z,60.80
2023-05-14T03:58:28.362Z,60.95
2023-05-14T04:03:31.238Z,61.13
2023-05-14T04:08:35.651Z,60.61
2023-05-14T04:13:38.628Z,60.68
2023-05-14T04:18:41.675Z,60.91
2023-05-14T04:23:45.915Z,61.11
2023-05-14T04:28:48.682Z,61.37
2023-05-14T04:33:51.441Z,61.46
2023-05-14T04:38:55.968Z,61.82
2023-05-14T04:44:01.314Z,61.77
2023-05-14T04:49:04.163Z,61.68
2023-05-14T04:54:08.375Z,61.43
2023-05-14T04:59:11.227Z,61.54
2023-05-14T05:04:15.250Z,60.13
2023-05-14T05:09:19.831Z,59.27
2023-05-14T05:14:22.572Z,59.21
2023-05-14T05:19:35.685Z,59.10
2023-05-14T05:24:44.178Z,59.02
2023-05-14T05:29:46.981Z,59.22
2023-05-14T05:34:49.764Z,59.31
2023-05-14T05:39:53.995Z,59.74
2023-05-14T05:44:56.854Z,59.60
2023-05-14T05:49:59.614Z,58.88
2023-05-14T05:55:03.720Z,59.04
2023-05-14T06:00:13.235Z,57.51
2023-05-14T06:05:16.064Z,56.97
2023-05-14T06:10:20.621Z,55.71
2023-05-14T06:15:24.137Z,54.74
2023-05-14T06:20:26.998Z,54.22
2023-05-14T06:25:31.173Z,52.99
2023-05-14T06:30:34.284Z,52.35
2023-05-14T06:35:37.088Z,51.40
2023-05-14T06:40:41.224Z,50.60
2023-05-14T06:45:43.970Z,50.33
2023-05-14T06:50:47.221Z,50.35
2023-05-14T06:55:51.400Z,48.83
2023-05-14T07:00:54.193Z,48.56
2023-05-14T07:05:56.981Z,48.08
2023-05-14T07:11:01.142Z,48.23
2023-05-14T07:16:03.922Z,49.09
2023-05-14T07:21:07.194Z,49.59
2023-05-14T07:26:11.387Z,49.41
2023-05-14T07:31:14.199Z,50.43
2023-05-14T07:36:17.114Z,50.67
2023-05-14T07:41:21.514Z,50.05
2023-05-14T07:46:25.788Z,50.10
2023-05-14T07:51:29.198Z,49.59
2023-05-14T07:56:33.391Z,48.91
2023-05-14T08:01:39.073Z,46.30
2023-05-14T08:06:42.227Z,45.37
2023-05-14T08:11:46.402Z,44.91
2023-05-14T08:16:50.020Z,43.15
2023-05-14T08:21:52.833Z,42.71
2023-05-14T08:26:57.006Z,41.61
2023-05-14T08:32:05.808Z,39.31
2023-05-14T08:37:14.809Z,40.02
2023-05-14T08:42:22.794Z,41.20
2023-05-14T08:47:26.436Z,40.41
2023-05-14T08:52:29.548Z,39.95
2023-05-14T08:57:34.835Z,40.15
2023-05-14T09:02:38.116Z,38.31
2023-05-14T09:07:40.912Z,37.05
2023-05-14T09:12:45.115Z,37.26
2023-05-14T09:17:49.234Z,37.64
2023-05-14T09:22:54.247Z,38.10
2023-05-14T09:27:58.881Z,37.36
2023-05-14T09:33:03.958Z,36.55
2023-05-14T09:38:06.748Z,36.44
2023-05-14T09:43:11.386Z,37.77
2023-05-14T09:48:14.261Z,35.97
2023-05-14T09:53:17.761Z,37.28
2023-05-14T09:58:22.026Z,36.32
2023-05-14T10:03:27.844Z,36.93
2023-05-14T10:08:34.969Z,35.50
2023-05-14T10:13:42.726Z,35.87
2023-05-14T10:18:52.400Z,34.06
2023-05-14T10:23:55.350Z,35.78
2023-05-14T10:29:00.180Z,36.54
2023-05-14T10:34:03.168Z,34.87
2023-05-14T10:39:06.130Z,32.11
2023-05-14T10:44:11.358Z,31.32
2023-05-14T10:49:14.188Z,31.98
2023-05-14T10:54:17.774Z,32.63
2023-05-14T10:59:29.188Z,32.83
2023-05-14T11:04:32.754Z,33.47
2023-05-14T11:09:36.099Z,31.55
2023-05-14T11:14:40.277Z,32.07
2023-05-14T11:19:44.723Z,31.25
2023-05-14T11:24:47.583Z,31.09
2023-05-14T11:29:52.039Z,30.65
2023-05-14T11:34:54.836Z,32.25
2023-05-14T11:40:02.934Z,33.66
2023-05-14T11:45:08.596Z,34.41
2023-05-14T11:50:11.949Z,32.93
2023-05-14T11:55:14.845Z,32.06
2023-05-14T12:00:22.066Z,32.39
2023-05-14T12:05:25.078Z,34.00
2023-05-14T12:10:27.818Z,33.74
2023-05-14T12:15:32.375Z,33.50
2023-05-14T12:20:35.107Z,34.09
2023-05-14T12:25:39.334Z,33.98
2023-05-14T12:30:43.490Z,32.97
2023-05-14T12:35:46.935Z,33.10
2023-05-14T12:40:49.656Z,33.73
2023-05-14T12:45:53.827Z,33.47
2023-05-14T12:50:56.623Z,32.55
2023-05-14T12:55:59.450Z,31.58
2023-05-14T13:01:03.837Z,29.43
2023-05-14T13:06:06.869Z,30.99
2023-05-14T13:11:09.611Z,31.51
2023-05-14T13:16:16.783Z,32.35
2023-05-14T13:21:19.683Z,32.00
2023-05-14T13:26:22.659Z,31.48
2023-05-14T13:31:26.772Z,32.28
2023-05-14T13:36:30.983Z,32.38
2023-05-14T13:41:35.486Z,34.91
2023-05-14T13:46:39.672Z,35.54
2023-05-14T13:51:42.524Z,35.69
2023-05-14T13:56:45.316Z,34.42
2023-05-14T14:01:50.082Z,34.64
2023-05-14T14:06:52.963Z,34.14
2023-05-14T14:11:55.845Z,35.31
2023-05-14T14:17:00.106Z,32.93
2023-05-14T14:22:03.065Z,32.98
2023-05-14T14:27:06.583Z,32.27
2023-05-14T14:32:10.752Z,32.49
2023-05-14T14:37:13.514Z,32.66
2023-05-14T14:42:16.347Z,33.27
2023-05-14T14:47:20.493Z,38.68
2023-05-14T14:52:23.635Z,42.06
2023-05-14T14:57:26.718Z,41.48
2023-05-14T15:02:31.062Z,40.16
2023-05-14T15:07:34.133Z,37.30
2023-05-14T15:12:37.110Z,34.71
2023-05-14T15:17:41.289Z,33.94
2023-05-14T15:22:44.124Z,34.74
2023-05-14T15:27:46.969Z,39.22
2023-05-14T15:32:51.226Z,39.83
2023-05-14T15:37:57.189Z,39.28
2023-05-14T15:42:59.973Z,38.70
2023-05-14T15:48:04.312Z,36.60
2023-05-14T15:53:07.179Z,37.52
2023-05-14T15:58:10.018Z,37.97
2023-05-14T16:03:14.226Z,37.82
2023-05-14T16:08:17.056Z,37.30
2023-05-14T16:13:20.363Z,35.51
2023-05-14T16:18:25.181Z,34.87
2023-05-14T16:23:28.200Z,35.54
2023-05-14T16:28:30.953Z,36.00
2023-05-14T16:33:35.039Z,36.17
2023-05-14T16:38:44.563Z,35.70
2023-05-14T16:43:55.324Z,35.18
2023-05-14T16:48:59.494Z,36.74
2023-05-14T16:54:02.217Z,37.16
2023-05-14T16:59:04.976Z,35.12
2023-05-14T17:04:10.146Z,34.44
2023-05-14T17:09:12.937Z,34.92
2023-05-14T17:14:15.887Z,31.67
2023-05-14T17:19:20.016Z,32.71
2023-05-14T17:24:22.827Z,36.85
2023-05-14T17:29:26.257Z,40.96
2023-05-14T17:34:30.483Z,42.18
2023-05-14T17:39:33.274Z,42.92
2023-05-14T17:44:36.297Z,44.67
2023-05-14T17:49:40.477Z,42.63
2023-05-14T17:54:43.286Z,43.75
2023-05-14T17:59:46.122Z,60.34
2023-05-14T18:04:50.375Z,81.47
2023-05-14T18:09:53.140Z,92.70
2023-05-14T18:14:55.941Z,94.68
2023-05-14T18:20:00.201Z,100.00
2023-05-14T18:25:03.093Z,94.47
2023-05-14T18:30:07.334Z,92.44
2023-05-14T18:35:12.120Z,92.61
2023-05-14T18:40:17.729Z,91.50
2023-05-14T18:45:22.368Z,90.38
2023-05-14T18:50:26.646Z,92.77
2023-05-14T18:55:29.566Z,89.22
2023-05-14T19:00:32.331Z,89.99
2023-05-14T19:05:36.662Z,89.98
2023-05-14T19:10:39.453Z,89.57
2023-05-14T19:15:42.479Z,88.03
2023-05-14T19:20:47.168Z,89.57
2023-05-14T19:25:49.949Z,87.55
2023-05-14T19:30:53.439Z,87.83
2023-05-14T19:35:58.392Z,87.72
2023-05-14T19:41:01.138Z,87.38
2023-05-14T19:46:04.476Z,91.12
2023-05-14T19:51:10.891Z,90.54
2023-05-14T19:56:13.663Z,89.63
2023-05-14T20:01:16.498Z,89.56
2023-05-14T20:06:20.903Z,90.15
2023-05-14T20:11:23.694Z,85.55
2023-05-14T20:16:26.582Z,89.29
2023-05-14T20:21:31.571Z,89.22
2023-05-14T20:26:34.464Z,89.85
2023-05-14T20:31:37.274Z,87.08
2023-05-14T20:36:41.760Z,88.40
2023-05-14T20:41:45.548Z,85.65
2023-05-14T20:46:48.667Z,87.93
2023-05-14T20:51:52.841Z,88.21
2023-05-14T20:56:55.681Z,88.07
2023-05-14T21:01:58.498Z,88.03
2023-05-14T21:07:03.840Z,85.88
2023-05-14T21:12:07.430Z,85.51
2023-05-14T21:17:10.306Z,88.37
2023-05-14T21:22:14.821Z,86.46
2023-05-14T21:27:17.857Z,86.28
2023-05-14T21:32:22.121Z,86.97
2023-05-14T21:37:26.539Z,85.43
2023-05-14T21:42:29.275Z,87.17
2023-05-14T21:47:32.495Z,87.76
2023-05-14T21:52:37.841Z,85.57
2023-05-14T21:57:41.287Z,84.67
2023-05-14T22:02:44.020Z,86.37
2023-05-14T22:07:48.144Z,87.07
2023-05-14T22:12:50.844Z,87.64
2023-05-14T22:17:53.562Z,87.73
2023-05-14T22:22:57.595Z,87.41
2023-05-14T22:28:00.317Z,87.99
2023-05-14T22:33:03.068Z,87.19
2023-05-14T22:38:07.277Z,87.99
2023-05-14T22:43:09.963Z,85.52
2023-05-14T22:48:12.624Z,85.06
2023-05-14T22:53:16.655Z,84.50
2023-05-14T22:58:19.403Z,86.87
2023-05-14T23:03:22.052Z,87.80
2023-05-14T23:08:26.117Z,86.67
2023-05-14T23:13:28.898Z,84.56
2023-05-14T23:18:31.687Z,83.89
2023-05-14T23:23:35.960Z,84.29
2023-05-14T23:28:38.662Z,86.39
2023-05-14T23:33:41.431Z,86.82
2023-05-14T23:38:45.767Z,86.82
2023-05-14T23:43:48.828Z,87.25
2023-05-14T23:48:52.121Z,86.56
2023-05-14T23:53:58.452Z,86.95
2023-05-14T23:59:01.574Z,86.03
